Time;durP1;ratioP1;P1;durP2;ratioP2;P2;SDS_P1;SDS_P2;PMS_P1;PMS_P2;Temp;Humidity;BMP_temperature;BMP_pressure;BME280_temperature;BME280_humidity;BME280_pressure;Samples;Min_cycle;Max_cycle;Signal;HPM_P1;HPM_P2
2021/03/11 00:00:22;;;;;;;11.40;8.57;;;;;;;;;;4957322;29;20414;-77
2021/03/11 00:02:48;;;;;;;11.20;8.00;;;;;;;;;;4957117;29;20607;-77
2021/03/11 00:05:15;;;;;;;10.60;8.60;;;;;;;;;;4957061;29;20451;-78
2021/03/11 00:07:41;;;;;;;11.23;9.07;;;;;;;;;;4957108;29;20272;-77
2021/03/11 00:10:10;;;;;;;15.40;9.60;;;;;;;;;;4957087;29;20454;-76
2021/03/11 00:15:41;;;;;;;12.47;8.37;;;;;;;;;;4957004;29;20496;-77
2021/03/11 00:18:07;;;;;;;12.23;10.18;;;;;;;;;;4956686;29;20874;-77
2021/03/11 00:20:34;;;;;;;11.27;8.97;;;;;;;;;;4956865;29;20247;-77
2021/03/11 00:23:00;;;;;;;13.15;8.98;;;;;;;;;;4939563;29;20465;-77
2021/03/11 00:25:27;;;;;;;13.73;9.80;;;;;;;;;;4956663;29;20170;-78
2021/03/11 00:27:53;;;;;;;11.97;9.30;;;;;;;;;;4956710;29;20424;-76
2021/03/11 00:30:20;;;;;;;12.63;8.63;;;;;;;;;;4956560;29;20462;-77
2021/03/11 00:32:46;;;;;;;10.50;9.00;;;;;;;;;;4956466;29;20481;-78
2021/03/11 00:35:12;;;;;;;12.83;9.23;;;;;;;;;;4939485;29;20428;-77
2021/03/11 00:37:40;;;;;;;14.53;9.60;;;;;;;;;;4956589;29;20435;-77
2021/03/11 00:40:07;;;;;;;17.50;8.57;;;;;;;;;;4956681;29;20434;-77
2021/03/11 00:45:37;;;;;;;9.77;8.77;;;;;;;;;;4956344;29;20418;-78
2021/03/11 00:48:03;;;;;;;12.50;9.87;;;;;;;;;;4956121;29;20472;-76
2021/03/11 00:50:29;;;;;;;10.80;8.77;;;;;;;;;;4956289;29;20465;-77
2021/03/11 00:52:55;;;;;;;8.73;7.83;;;;;;;;;;4938791;29;20805;-77
2021/03/11 00:55:22;;;;;;;12.07;9.00;;;;;;;;;;4956181;29;20415;-76
2021/03/11 01:00:51;;;;;;;12.00;9.17;;;;;;;;;;4955914;29;20426;-78
2021/03/11 01:03:17;;;;;;;10.63;7.77;;;;;;;;;;4955915;29;20763;-77
2021/03/11 01:05:43;;;;;;;11.83;9.23;;;;;;;;;;4956194;29;20426;-77
2021/03/11 01:08:09;;;;;;;10.70;8.83;;;;;;;;;;4956018;29;20419;-77
2021/03/11 01:10:36;;;;;;;10.50;8.97;;;;;;;;;;4955855;29;20474;-77
2021/03/11 01:13:02;;;;;;;13.10;8.30;;;;;;;;;;4956232;29;20964;-76
2021/03/11 01:15:29;;;;;;;13.55;9.32;;;;;;;;;;4938588;29;20788;-76
2021/03/11 01:17:55;;;;;;;9.10;7.50;;;;;;;;;;4955587;29;20231;-76
2021/03/11 01:20:22;;;;;;;12.40;7.20;;;;;;;;;;4955844;29;20202;-77
2021/03/11 01:22:48;;;;;;;8.63;6.00;;;;;;;;;;4955802;29;20777;-76
2021/03/11 01:25:14;;;;;;;8.23;6.20;;;;;;;;;;4955777;29;20515;-76
2021/03/11 01:30:43;;;;;;;6.63;4.77;;;;;;;;;;4955792;29;20482;-77
2021/03/11 01:33:09;;;;;;;6.00;5.00;;;;;;;;;;4955495;29;20898;-76
2021/03/11 01:35:35;;;;;;;7.50;4.77;;;;;;;;;;4955508;29;20435;-77
2021/03/11 01:38:01;;;;;;;5.80;4.67;;;;;;;;;;4955788;29;20429;-77
2021/03/11 01:40:27;;;;;;;7.63;5.00;;;;;;;;;;4955909;29;20898;-76
2021/03/11 01:45:57;;;;;;;6.63;4.90;;;;;;;;;;4955239;29;20863;-78
2021/03/11 01:48:23;;;;;;;7.73;5.13;;;;;;;;;;4955362;29;20438;-77
2021/03/11 01:50:49;;;;;;;6.77;4.90;;;;;;;;;;4955511;29;20451;-77
2021/03/11 01:53:15;;;;;;;7.13;4.80;;;;;;;;;;4955460;29;20419;-77
2021/03/11 01:55:41;;;;;;;11.53;4.87;;;;;;;;;;4955202;29;20817;-78
2021/03/11 01:58:07;;;;;;;6.90;4.83;;;;;;;;;;4955162;29;20415;-77
2021/03/11 02:00:33;;;;;;;9.10;5.70;;;;;;;;;;4955182;29;20866;-77
2021/03/11 02:02:59;;;;;;;9.13;5.20;;;;;;;;;;4954803;29;20419;-77
2021/03/11 02:05:26;;;;;;;5.67;4.77;;;;;;;;;;4954422;28;20418;-77
2021/03/11 02:07:52;;;;;;;7.30;5.50;;;;;;;;;;4955242;29;20411;-76
2021/03/11 02:10:21;;;;;;;8.07;5.67;;;;;;;;;;4955100;29;20553;-78
2021/03/11 02:15:54;;;;;;;6.53;4.87;;;;;;;;;;4954957;29;20422;-77
2021/03/11 02:18:24;;;;;;;9.37;5.60;;;;;;;;;;4954659;29;20490;-77
2021/03/11 02:20:53;;;;;;;10.87;6.27;;;;;;;;;;4954778;29;20780;-77
2021/03/11 02:23:25;;;;;;;10.30;6.60;;;;;;;;;;4954887;29;20416;-77
2021/03/11 02:25:55;;;;;;;11.90;6.47;;;;;;;;;;4955010;29;20411;-77
2021/03/11 02:28:40;;;;;;;9.40;6.43;;;;;;;;;;4954857;29;20454;-77
2021/03/11 02:31:07;;;;;;;8.30;5.83;;;;;;;;;;4954762;29;20618;-76
2021/03/11 02:33:34;;;;;;;11.17;5.97;;;;;;;;;;4954585;29;20426;-77
2021/03/11 02:36:01;;;;;;;8.07;6.30;;;;;;;;;;4954686;29;20446;-76
2021/03/11 02:38:29;;;;;;;8.10;5.93;;;;;;;;;;4954624;29;20416;-77
2021/03/11 02:40:57;;;;;;;10.23;6.27;;;;;;;;;;4954730;29;20428;-77
2021/03/11 02:43:24;;;;;;;8.83;5.90;;;;;;;;;;4954769;29;20415;-76
2021/03/11 02:45:51;;;;;;;8.03;6.87;;;;;;;;;;4954658;29;20494;-77
2021/03/11 02:48:17;;;;;;;8.73;6.43;;;;;;;;;;4954243;29;20412;-77
2021/03/11 02:50:43;;;;;;;7.80;7.00;;;;;;;;;;4954421;29;20466;-77
2021/03/11 02:53:10;;;;;;;7.30;6.20;;;;;;;;;;4954517;29;20431;-77
2021/03/11 02:55:37;;;;;;;8.80;6.17;;;;;;;;;;4954810;29;20559;-77
2021/03/11 03:01:10;;;;;;;9.40;6.30;;;;;;;;;;4954497;29;20439;-78
2021/03/11 03:03:36;;;;;;;7.73;5.93;;;;;;;;;;4954379;29;20431;-77
2021/03/11 03:06:04;;;;;;;7.23;5.57;;;;;;;;;;4937242;29;20791;-76
2021/03/11 03:08:30;;;;;;;12.80;6.87;;;;;;;;;;4954498;29;20494;-77
2021/03/11 03:10:57;;;;;;;8.00;6.07;;;;;;;;;;4954499;29;20566;-78
2021/03/11 03:16:26;;;;;;;6.40;5.60;;;;;;;;;;4955641;28;20502;-77
2021/03/11 03:18:53;;;;;;;8.70;6.20;;;;;;;;;;4957939;29;20803;-78
2021/03/11 03:21:19;;;;;;;8.67;5.90;;;;;;;;;;4957894;29;20403;-78
2021/03/11 03:23:46;;;;;;;10.47;6.57;;;;;;;;;;4957906;29;20407;-78
2021/03/11 03:26:12;;;;;;;8.20;5.23;;;;;;;;;;4957836;29;20913;-78
2021/03/11 03:28:38;;;;;;;7.65;5.47;;;;;;;;;;4957873;29;20439;-78
2021/03/11 03:31:05;;;;;;;6.40;5.13;;;;;;;;;;4957477;29;20218;-77
2021/03/11 03:33:31;;;;;;;5.67;4.90;;;;;;;;;;4957565;29;20483;-77
2021/03/11 03:35:57;;;;;;;6.80;4.97;;;;;;;;;;4957744;29;20444;-77
2021/03/11 03:38:23;;;;;;;7.27;5.47;;;;;;;;;;4957641;29;20412;-77
2021/03/11 03:40:51;;;;;;;7.33;4.60;;;;;;;;;;4957613;29;20416;-77
2021/03/11 03:46:23;;;;;;;6.60;4.80;;;;;;;;;;4957405;29;20419;-76
2021/03/11 03:48:49;;;;;;;6.53;4.23;;;;;;;;;;4957403;29;20515;-77
2021/03/11 03:51:16;;;;;;;6.30;3.83;;;;;;;;;;4957425;29;20910;-78
2021/03/11 03:53:47;;;;;;;6.57;3.80;;;;;;;;;;4957460;29;20443;-78
2021/03/11 04:02:20;;;;;;;5.20;4.00;;;;;;;;;;4957017;29;20481;-77
2021/03/11 04:04:48;;;;;;;9.77;3.20;;;;;;;;;;4957113;29;20415;-77
2021/03/11 04:07:16;;;;;;;7.07;4.50;;;;;;;;;;4957131;29;20819;-76
2021/03/11 04:09:43;;;;;;;3.77;3.43;;;;;;;;;;4957011;29;20420;-76
2021/03/11 04:12:10;;;;;;;7.03;4.00;;;;;;;;;;4956918;29;20472;-76
2021/03/11 04:14:36;;;;;;;4.53;3.37;;;;;;;;;;4939581;29;20926;-77
2021/03/11 04:17:03;;;;;;;7.63;3.23;;;;;;;;;;4956852;29;20471;-77
2021/03/11 04:19:29;;;;;;;4.40;2.93;;;;;;;;;;4956735;29;20570;-77
2021/03/11 04:21:55;;;;;;;2.70;2.43;;;;;;;;;;4956925;29;20419;-77
2021/03/11 04:24:22;;;;;;;5.70;3.47;;;;;;;;;;4956745;29;20424;-78
2021/03/11 04:26:48;;;;;;;2.67;2.47;;;;;;;;;;4956830;29;20763;-78
2021/03/11 04:29:14;;;;;;;4.50;3.00;;;;;;;;;;4956095;28;20474;-77
2021/03/11 04:31:40;;;;;;;3.93;2.60;;;;;;;;;;4956497;29;20522;-77
2021/03/11 04:34:07;;;;;;;4.77;3.00;;;;;;;;;;4956688;29;20411;-77
2021/03/11 04:36:34;;;;;;;2.83;2.57;;;;;;;;;;4956584;29;20420;-76
2021/03/11 04:39:00;;;;;;;4.27;2.90;;;;;;;;;;4956608;29;20451;-77
2021/03/11 04:41:27;;;;;;;4.63;2.77;;;;;;;;;;4956268;29;20424;-75
2021/03/11 04:46:56;;;;;;;2.87;2.40;;;;;;;;;;4956317;29;20410;-77
2021/03/11 04:49:24;;;;;;;2.60;2.40;;;;;;;;;;4956465;29;20944;-77
2021/03/11 04:51:50;;;;;;;4.47;3.03;;;;;;;;;;4955332;29;20851;-77
2021/03/11 04:54:17;;;;;;;3.23;2.17;;;;;;;;;;4938951;29;20514;-77
2021/03/11 04:56:43;;;;;;;2.60;2.07;;;;;;;;;;4956087;29;20510;-77
2021/03/11 04:59:10;;;;;;;6.63;2.67;;;;;;;;;;4956094;29;20515;-77
2021/03/11 05:01:40;;;;;;;3.67;2.17;;;;;;;;;;4955800;29;20424;-77
2021/03/11 05:04:07;;;;;;;3.10;2.20;;;;;;;;;;4955948;29;20482;-76
2021/03/11 05:06:33;;;;;;;7.57;3.17;;;;;;;;;;4956051;29;20450;-76
2021/03/11 05:08:59;;;;;;;3.87;2.83;;;;;;;;;;4956146;29;20431;-77
2021/03/11 05:11:25;;;;;;;2.70;2.13;;;;;;;;;;4955795;29;20475;-77
2021/03/11 05:16:54;;;;;;;3.57;2.40;;;;;;;;;;4955742;29;20845;-78
2021/03/11 05:19:20;;;;;;;5.03;2.23;;;;;;;;;;4955522;29;20552;-78
2021/03/11 05:21:46;;;;;;;1.73;1.43;;;;;;;;;;4955571;29;20510;-77
2021/03/11 05:24:12;;;;;;;3.53;2.43;;;;;;;;;;4955198;29;20483;-77
2021/03/11 05:26:38;;;;;;;5.03;2.80;;;;;;;;;;4955201;29;20427;-77
2021/03/11 05:32:08;;;;;;;2.47;2.27;;;;;;;;;;4954924;29;20510;-77
2021/03/11 05:34:34;;;;;;;4.33;3.10;;;;;;;;;;4954877;29;20510;-77
2021/03/11 05:37:01;;;;;;;2.67;2.43;;;;;;;;;;4955074;29;20423;-77
2021/03/11 05:39:27;;;;;;;2.90;2.47;;;;;;;;;;4954631;28;20404;-74
2021/03/11 05:41:54;;;;;;;4.27;2.50;;;;;;;;;;4954938;29;20498;-77
2021/03/11 05:47:23;;;;;;;2.60;1.97;;;;;;;;;;4953907;29;20796;-74
2021/03/11 05:49:50;;;;;;;3.07;2.27;;;;;;;;;;4954034;29;20442;-76
2021/03/11 05:52:16;;;;;;;3.00;2.30;;;;;;;;;;4954699;29;20447;-76
2021/03/11 05:54:42;;;;;;;3.37;2.80;;;;;;;;;;4954975;29;20513;-76
2021/03/11 05:57:08;;;;;;;2.80;2.60;;;;;;;;;;4954780;29;20424;-75
2021/03/11 05:59:35;;;;;;;3.83;2.77;;;;;;;;;;4954383;29;20454;-77
2021/03/11 06:02:06;;;;;;;3.20;2.87;;;;;;;;;;4954291;29;20411;-76
2021/03/11 06:04:35;;;;;;;6.00;2.90;;;;;;;;;;4954631;29;20420;-75
2021/03/11 06:10:05;;;;;;;3.00;2.70;;;;;;;;;;4943414;28;20642;-76
2021/03/11 06:12:31;;;;;;;2.40;2.20;;;;;;;;;;4949537;28;20442;-77
2021/03/11 06:15:05;;;;;;;4.50;2.50;;;;;;;;;;4952789;28;20464;-76
2021/03/11 06:17:33;;;;;;;3.40;2.30;;;;;;;;;;4952517;28;20428;-76
2021/03/11 06:19:59;;;;;;;3.27;2.47;;;;;;;;;;4951909;28;20588;-76
2021/03/11 06:22:26;;;;;;;3.63;3.03;;;;;;;;;;4951195;28;20447;-76
2021/03/11 06:24:52;;;;;;;3.80;2.63;;;;;;;;;;4949519;28;20443;-76
2021/03/11 06:27:18;;;;;;;3.70;2.97;;;;;;;;;;4950143;28;20824;-76
2021/03/11 06:29:44;;;;;;;1.80;1.47;;;;;;;;;;4949001;28;20456;-76
2021/03/11 06:32:10;;;;;;;2.07;1.83;;;;;;;;;;4947933;28;20644;-76
2021/03/11 06:34:39;;;;;;;2.07;1.70;;;;;;;;;;4946365;28;20444;-77
2021/03/11 06:37:05;;;;;;;3.17;2.90;;;;;;;;;;4946767;28;20459;-76
2021/03/11 06:39:33;;;;;;;2.10;2.00;;;;;;;;;;4950284;28;20623;-75
2021/03/11 06:41:59;;;;;;;3.20;2.00;;;;;;;;;;4956233;28;20503;-76
2021/03/11 06:44:39;;;;;;;3.70;2.10;;;;;;;;;;4954333;28;20472;-75
2021/03/11 06:47:11;;;;;;;2.10;1.97;;;;;;;;;;4956381;28;20453;-76
2021/03/11 06:49:57;;;;;;;2.07;1.47;;;;;;;;;;4950475;28;20946;-77
2021/03/11 06:52:23;;;;;;;2.53;1.90;;;;;;;;;;4950061;28;20476;-75
2021/03/11 06:54:50;;;;;;;3.37;1.80;;;;;;;;;;4950916;28;20460;-77
2021/03/11 06:57:35;;;;;;;2.03;1.83;;;;;;;;;;4949902;28;20452;-77
2021/03/11 07:00:03;;;;;;;2.70;2.20;;;;;;;;;;4950668;28;21097;-76
2021/03/11 07:02:29;;;;;;;1.83;1.73;;;;;;;;;;4951271;28;20444;-76
2021/03/11 07:04:56;;;;;;;1.83;1.70;;;;;;;;;;4951377;28;20808;-76
2021/03/11 07:07:23;;;;;;;2.83;2.07;;;;;;;;;;4949560;28;20441;-78
2021/03/11 07:09:53;;;;;;;1.70;1.60;;;;;;;;;;4948902;28;20513;-77
2021/03/11 07:12:19;;;;;;;3.03;1.63;;;;;;;;;;4951061;28;20976;-76
2021/03/11 07:14:47;;;;;;;2.13;1.50;;;;;;;;;;4951797;28;21371;-76
2021/03/11 07:17:24;;;;;;;2.30;1.60;;;;;;;;;;4950883;28;20440;-76
2021/03/11 07:20:08;;;;;;;2.60;2.03;;;;;;;;;;4950431;28;20446;-77
2021/03/11 07:22:34;;;;;;;6.00;2.40;;;;;;;;;;4953016;28;20475;-75
2021/03/11 07:25:01;;;;;;;3.37;1.50;;;;;;;;;;4954395;28;20553;-77
2021/03/11 07:27:40;;;;;;;3.67;1.60;;;;;;;;;;4951881;28;20483;-75
2021/03/11 07:30:07;;;;;;;2.10;1.50;;;;;;;;;;4950903;28;20451;-76
2021/03/11 07:32:34;;;;;;;2.30;1.33;;;;;;;;;;4953155;28;20943;-77
2021/03/11 07:35:01;;;;;;;1.43;1.20;;;;;;;;;;4952825;28;20494;-75
2021/03/11 07:37:27;;;;;;;1.80;1.40;;;;;;;;;;4952619;28;21015;-77
2021/03/11 07:39:57;;;;;;;8.83;1.47;;;;;;;;;;4952516;28;20445;-75
2021/03/11 07:42:24;;;;;;;1.40;1.30;;;;;;;;;;4952382;28;20455;-76
2021/03/11 07:44:51;;;;;;;6.40;1.57;;;;;;;;;;4950716;28;20452;-77
2021/03/11 07:47:18;;;;;;;1.40;1.27;;;;;;;;;;4951224;28;20455;-77
2021/03/11 07:49:44;;;;;;;2.10;1.77;;;;;;;;;;4951840;28;20947;-75
2021/03/11 07:52:11;;;;;;;2.10;1.60;;;;;;;;;;4953098;28;20527;-77
2021/03/11 07:54:37;;;;;;;2.70;1.30;;;;;;;;;;4950541;28;21302;-77
2021/03/11 07:57:04;;;;;;;9.03;1.50;;;;;;;;;;4952913;28;20454;-77
2021/03/11 07:59:31;;;;;;;3.03;1.27;;;;;;;;;;4946425;28;20540;-78
2021/03/11 08:02:09;;;;;;;2.00;1.57;;;;;;;;;;4948322;28;20516;-75
2021/03/11 08:04:40;;;;;;;1.60;1.50;;;;;;;;;;4947518;28;20482;-76
2021/03/11 08:07:18;;;;;;;1.97;1.77;;;;;;;;;;4949187;28;20463;-75
2021/03/11 08:09:44;;;;;;;4.13;3.13;;;;;;;;;;4947831;28;20805;-77
2021/03/11 08:12:29;;;;;;;1.40;1.00;;;;;;;;;;4940065;28;20528;-76
2021/03/11 08:14:56;;;;;;;1.50;1.30;;;;;;;;;;4941480;28;20444;-76
2021/03/11 08:17:34;;;;;;;2.33;1.90;;;;;;;;;;4946215;28;20443;-78
2021/03/11 08:20:04;;;;;;;8.17;1.80;;;;;;;;;;4946181;28;20465;-78
2021/03/11 08:22:48;;;;;;;1.47;1.30;;;;;;;;;;4946614;28;21052;-77
2021/03/11 08:25:42;;;;;;;1.97;1.73;;;;;;;;;;4945940;28;20541;-76
2021/03/11 08:28:08;;;;;;;2.63;1.30;;;;;;;;;;4945577;28;20912;-77
2021/03/11 08:30:40;;;;;;;4.33;1.67;;;;;;;;;;4946466;28;20540;-77
2021/03/11 08:33:06;;;;;;;3.33;1.57;;;;;;;;;;4945741;28;20964;-74
2021/03/11 08:35:38;;;;;;;3.03;1.30;;;;;;;;;;4947881;28;20486;-76
2021/03/11 08:38:32;;;;;;;1.60;1.50;;;;;;;;;;4946046;28;20446;-76
2021/03/11 08:41:08;;;;;;;1.30;0.90;;;;;;;;;;4929624;29;21054;-77
2021/03/11 08:43:37;;;;;;;1.50;1.40;;;;;;;;;;4942542;28;20473;-76
2021/03/11 08:46:10;;;;;;;2.10;1.50;;;;;;;;;;4946313;28;20553;-76
2021/03/11 08:48:40;;;;;;;2.37;1.30;;;;;;;;;;4945445;28;20461;-77
2021/03/11 08:51:08;;;;;;;1.73;1.50;;;;;;;;;;4947993;28;20609;-77
2021/03/11 08:53:44;;;;;;;3.07;1.40;;;;;;;;;;4951863;28;20458;-79
2021/03/11 08:56:16;;;;;;;2.20;1.43;;;;;;;;;;4944819;28;20496;-76
2021/03/11 08:59:02;;;;;;;3.50;1.73;;;;;;;;;;4945622;28;20534;-76
2021/03/11 09:01:37;;;;;;;2.10;1.50;;;;;;;;;;4947028;28;20456;-78
2021/03/11 09:04:04;;;;;;;1.67;1.57;;;;;;;;;;4945935;28;20453;-78
2021/03/11 09:06:49;;;;;;;2.40;1.60;;;;;;;;;;4945681;28;20450;-77
2021/03/11 09:09:15;;;;;;;3.10;1.07;;;;;;;;;;4946929;28;20506;-78
2021/03/11 09:11:53;;;;;;;2.30;1.50;;;;;;;;;;4947919;28;20540;-77
2021/03/11 09:14:21;;;;;;;2.33;1.47;;;;;;;;;;4950497;28;20435;-77
2021/03/11 09:16:47;;;;;;;5.30;1.40;;;;;;;;;;4951549;28;20447;-78
2021/03/11 09:19:14;;;;;;;2.33;1.67;;;;;;;;;;4952862;28;20483;-77
2021/03/11 09:21:40;;;;;;;2.30;1.60;;;;;;;;;;4954512;28;20458;-78
2021/03/11 09:24:15;;;;;;;1.87;1.50;;;;;;;;;;4951327;28;20538;-78
2021/03/11 09:26:41;;;;;;;1.53;0.93;;;;;;;;;;4943729;28;21017;-77
2021/03/11 09:29:07;;;;;;;4.90;1.73;;;;;;;;;;4946797;28;20447;-78
2021/03/11 09:31:33;;;;;;;1.47;1.37;;;;;;;;;;4944003;28;20497;-77
2021/03/11 09:34:01;;;;;;;2.20;1.30;;;;;;;;;;4944622;28;20447;-76
2021/03/11 09:36:27;;;;;;;3.20;1.73;;;;;;;;;;4944897;28;20455;-77
2021/03/11 09:38:59;;;;;;;1.27;1.17;;;;;;;;;;4947495;28;20486;-77
2021/03/11 09:41:26;;;;;;;1.27;1.07;;;;;;;;;;4947576;28;20466;-77
2021/03/11 09:43:52;;;;;;;1.27;0.97;;;;;;;;;;4947862;28;20497;-78
2021/03/11 09:46:20;;;;;;;1.20;1.03;;;;;;;;;;4948768;28;20461;-79
2021/03/11 09:48:47;;;;;;;0.90;0.80;;;;;;;;;;4947820;28;20949;-78
2021/03/11 09:51:17;;;;;;;2.10;1.27;;;;;;;;;;4947043;28;20483;-77
2021/03/11 09:53:43;;;;;;;1.50;1.20;;;;;;;;;;4948208;28;20450;-78
2021/03/11 09:56:19;;;;;;;7.50;1.67;;;;;;;;;;4950078;28;20477;-77
2021/03/11 09:58:45;;;;;;;2.80;1.40;;;;;;;;;;4948463;28;20877;-77
2021/03/11 10:01:11;;;;;;;2.50;1.17;;;;;;;;;;4942693;28;20459;-79
2021/03/11 10:03:37;;;;;;;1.73;1.03;;;;;;;;;;4943512;28;20559;-77
2021/03/11 10:06:04;;;;;;;1.33;0.70;;;;;;;;;;4943885;28;20444;-77
2021/03/11 10:08:33;;;;;;;0.80;0.60;;;;;;;;;;4947662;28;20988;-78
2021/03/11 10:11:06;;;;;;;1.10;0.90;;;;;;;;;;4948410;28;20571;-77
2021/03/11 10:13:33;;;;;;;0.77;0.47;;;;;;;;;;4947583;28;20447;-77
2021/03/11 10:15:59;;;;;;;0.83;0.77;;;;;;;;;;4946630;28;20448;-77
2021/03/11 10:18:25;;;;;;;2.80;0.87;;;;;;;;;;4946593;28;20539;-77
2021/03/11 10:21:05;;;;;;;1.10;0.63;;;;;;;;;;4947375;28;20853;-78
2021/03/11 10:23:31;;;;;;;0.60;0.60;;;;;;;;;;4947790;28;20458;-78
2021/03/11 10:26:16;;;;;;;1.50;1.07;;;;;;;;;;4947336;28;20478;-78
2021/03/11 10:28:44;;;;;;;0.90;0.57;;;;;;;;;;4947330;28;20443;-78
2021/03/11 10:31:10;;;;;;;0.80;0.80;;;;;;;;;;4947597;28;20848;-78
2021/03/11 10:33:36;;;;;;;0.70;0.63;;;;;;;;;;4947274;28;20451;-77
2021/03/11 10:36:13;;;;;;;1.43;0.73;;;;;;;;;;4953292;28;20447;-78
2021/03/11 10:38:39;;;;;;;2.20;0.70;;;;;;;;;;4953754;28;20450;-76
2021/03/11 10:41:13;;;;;;;3.80;0.73;;;;;;;;;;4951896;28;20462;-77
2021/03/11 10:43:39;;;;;;;0.63;0.60;;;;;;;;;;4952699;28;20470;-76
2021/03/11 10:46:09;;;;;;;0.77;0.50;;;;;;;;;;4947606;28;20462;-78
2021/03/11 10:48:51;;;;;;;0.97;0.70;;;;;;;;;;4952458;28;20973;-77
2021/03/11 10:51:18;;;;;;;0.80;0.80;;;;;;;;;;4952606;28;20479;-78
2021/03/11 10:53:44;;;;;;;0.97;0.90;;;;;;;;;;4942765;28;20833;-79
2021/03/11 10:56:11;;;;;;;0.77;0.60;;;;;;;;;;4955819;28;20449;-77
2021/03/11 10:58:37;;;;;;;1.00;0.60;;;;;;;;;;4964744;28;20447;-77
2021/03/11 11:01:07;;;;;;;3.90;0.80;;;;;;;;;;4958626;28;20431;-77
2021/03/11 11:03:33;;;;;;;0.53;0.50;;;;;;;;;;4955659;28;20788;-77
2021/03/11 11:05:59;;;;;;;0.80;0.63;;;;;;;;;;4953559;28;20454;-77
2021/03/11 11:08:25;;;;;;;1.83;0.73;;;;;;;;;;4955785;28;20486;-79
2021/03/11 11:10:52;;;;;;;2.27;1.00;;;;;;;;;;4958931;28;20482;-76
2021/03/11 11:13:18;;;;;;;1.00;0.50;;;;;;;;;;4962750;28;20447;-77
2021/03/11 11:15:44;;;;;;;0.87;0.40;;;;;;;;;;4950843;28;20770;-76
2021/03/11 11:18:10;;;;;;;1.23;0.70;;;;;;;;;;4951781;28;20454;-76
2021/03/11 11:20:36;;;;;;;1.47;0.60;;;;;;;;;;4951325;28;20455;-76
2021/03/11 11:23:03;;;;;;;1.27;0.60;;;;;;;;;;4955112;28;20458;-78
2021/03/11 11:25:29;;;;;;;0.97;0.77;;;;;;;;;;4963371;28;20818;-78
2021/03/11 11:27:55;;;;;;;1.43;1.00;;;;;;;;;;4962497;28;20509;-78
2021/03/11 11:30:21;;;;;;;0.80;0.80;;;;;;;;;;4940951;28;20467;-77
2021/03/11 11:32:47;;;;;;;0.60;0.60;;;;;;;;;;4945169;28;20872;-77
2021/03/11 11:35:15;;;;;;;1.80;1.03;;;;;;;;;;4949487;28;21002;-78
2021/03/11 11:37:42;;;;;;;0.60;0.50;;;;;;;;;;4950598;28;20873;-74
2021/03/11 11:40:08;;;;;;;1.40;0.87;;;;;;;;;;4952564;28;20856;-77
2021/03/11 11:42:34;;;;;;;0.80;0.77;;;;;;;;;;4947338;28;20972;-78
2021/03/11 11:45:00;;;;;;;4.37;0.70;;;;;;;;;;4951315;28;20442;-77
2021/03/11 11:47:26;;;;;;;1.90;0.67;;;;;;;;;;4951084;28;20816;-78
2021/03/11 11:49:52;;;;;;;1.03;0.50;;;;;;;;;;4950013;28;20899;-76
2021/03/11 11:52:18;;;;;;;0.80;0.63;;;;;;;;;;4950316;28;20494;-78
2021/03/11 11:54:44;;;;;;;1.10;0.73;;;;;;;;;;4951069;28;20451;-77
2021/03/11 11:57:10;;;;;;;0.70;0.70;;;;;;;;;;4951039;28;20808;-77
2021/03/11 11:59:38;;;;;;;2.13;0.93;;;;;;;;;;4947074;28;20498;-77
2021/03/11 12:02:05;;;;;;;2.30;0.50;;;;;;;;;;4949048;28;20450;-76
2021/03/11 12:04:31;;;;;;;2.63;0.60;;;;;;;;;;4949569;28;22035;-78
2021/03/11 12:06:58;;;;;;;1.43;0.70;;;;;;;;;;4951299;28;20477;-78
2021/03/11 12:09:25;;;;;;;0.83;0.50;;;;;;;;;;4949244;28;20483;-77
2021/03/11 12:11:51;;;;;;;1.93;0.77;;;;;;;;;;4949922;28;20562;-77
2021/03/11 12:14:18;;;;;;;1.20;0.70;;;;;;;;;;4951174;28;20545;-77
2021/03/11 12:16:45;;;;;;;1.10;0.70;;;;;;;;;;4951699;28;20451;-76
2021/03/11 12:19:11;;;;;;;0.77;0.70;;;;;;;;;;4952557;28;20444;-77
2021/03/11 12:21:40;;;;;;;1.50;0.90;;;;;;;;;;4954220;28;20960;-77
2021/03/11 12:24:07;;;;;;;1.20;0.70;;;;;;;;;;4954720;28;20609;-76
2021/03/11 12:26:33;;;;;;;1.43;0.80;;;;;;;;;;4956522;28;20451;-78
2021/03/11 12:29:00;;;;;;;0.57;0.50;;;;;;;;;;4955253;28;20797;-78
2021/03/11 12:31:28;;;;;;;0.53;0.50;;;;;;;;;;4958421;28;20485;-78
2021/03/11 12:33:56;;;;;;;1.13;0.90;;;;;;;;;;4954712;28;20451;-77
2021/03/11 12:36:22;;;;;;;1.23;0.80;;;;;;;;;;4953686;28;20506;-76
2021/03/11 12:38:52;;;;;;;0.80;0.70;;;;;;;;;;4953799;28;20446;-76
2021/03/11 12:41:26;;;;;;;3.60;1.03;;;;;;;;;;4954511;28;20445;-77
2021/03/11 12:43:52;;;;;;;0.93;0.83;;;;;;;;;;4956438;28;20926;-77
2021/03/11 12:46:19;;;;;;;0.53;0.53;;;;;;;;;;4953795;28;20446;-78
2021/03/11 12:48:46;;;;;;;0.70;0.70;;;;;;;;;;4954056;28;20930;-77
2021/03/11 12:51:13;;;;;;;2.13;0.80;;;;;;;;;;4953274;28;20482;-77
2021/03/11 12:53:39;;;;;;;1.93;1.33;;;;;;;;;;4954077;28;20441;-76
2021/03/11 12:56:06;;;;;;;1.00;0.90;;;;;;;;;;4953305;28;20554;-75
2021/03/11 12:58:32;;;;;;;0.60;0.57;;;;;;;;;;4952967;28;20519;-76
2021/03/11 13:00:59;;;;;;;0.70;0.50;;;;;;;;;;4954625;28;20448;-77
2021/03/11 13:03:25;;;;;;;1.40;0.60;;;;;;;;;;4952737;28;20451;-76
2021/03/11 13:05:56;;;;;;;0.70;0.70;;;;;;;;;;4952700;28;20461;-76
2021/03/11 13:08:27;;;;;;;0.73;0.67;;;;;;;;;;4952985;28;20491;-78
2021/03/11 13:10:54;;;;;;;0.90;0.90;;;;;;;;;;4954588;28;20486;-77
2021/03/11 13:13:26;;;;;;;1.30;1.20;;;;;;;;;;4955443;28;20458;-77
2021/03/11 13:15:53;;;;;;;0.80;0.60;;;;;;;;;;4955093;28;20526;-77
2021/03/11 13:18:19;;;;;;;1.53;1.07;;;;;;;;;;4952226;28;20560;-77
2021/03/11 13:20:49;;;;;;;2.37;0.73;;;;;;;;;;4954270;28;20439;-76
2021/03/11 13:23:15;;;;;;;1.10;1.00;;;;;;;;;;4954188;28;20451;-77
2021/03/11 13:25:42;;;;;;;1.53;0.90;;;;;;;;;;4952950;28;20463;-77
2021/03/11 13:28:09;;;;;;;0.63;0.63;;;;;;;;;;4953448;28;20459;-79
2021/03/11 13:30:35;;;;;;;2.60;1.33;;;;;;;;;;4953874;28;20467;-78
2021/03/11 13:33:07;;;;;;;1.00;0.90;;;;;;;;;;4952552;28;20493;-77
2021/03/11 13:35:33;;;;;;;2.10;1.00;;;;;;;;;;4954277;28;20438;-78
2021/03/11 13:38:01;;;;;;;2.10;0.90;;;;;;;;;;4954630;28;20797;-76
2021/03/11 13:40:31;;;;;;;0.70;0.60;;;;;;;;;;4952270;28;20527;-77
2021/03/11 13:43:01;;;;;;;1.93;0.90;;;;;;;;;;4954247;28;20582;-77
2021/03/11 13:45:34;;;;;;;2.57;1.00;;;;;;;;;;4954784;28;20786;-77
2021/03/11 13:48:00;;;;;;;0.70;0.70;;;;;;;;;;4950498;28;20530;-77
2021/03/11 13:50:26;;;;;;;0.60;0.60;;;;;;;;;;4955020;28;20446;-76
2021/03/11 13:52:52;;;;;;;1.00;0.80;;;;;;;;;;4954251;28;20481;-76
2021/03/11 13:55:18;;;;;;;0.80;0.60;;;;;;;;;;4954063;28;20596;-76
2021/03/11 13:57:44;;;;;;;0.77;0.77;;;;;;;;;;4953461;28;20454;-77
2021/03/11 14:00:11;;;;;;;0.73;0.73;;;;;;;;;;4953907;28;20798;-76
2021/03/11 14:02:37;;;;;;;5.47;1.00;;;;;;;;;;4956638;28;20791;-78
2021/03/11 14:05:04;;;;;;;1.33;1.20;;;;;;;;;;4965128;28;20464;-77
2021/03/11 14:07:30;;;;;;;1.20;1.10;;;;;;;;;;4956870;28;20958;-77
2021/03/11 14:09:57;;;;;;;0.77;0.77;;;;;;;;;;4962173;28;20562;-77
2021/03/11 14:12:22;;;;;;;0.80;0.73;;;;;;;;;;4962999;28;20520;-75
2021/03/11 14:14:48;;;;;;;1.20;0.60;;;;;;;;;;4958458;28;20471;-78
2021/03/11 14:17:14;;;;;;;0.73;0.70;;;;;;;;;;4962517;28;20440;-76
2021/03/11 14:19:40;;;;;;;1.20;0.80;;;;;;;;;;4963586;28;20444;-77
2021/03/11 14:22:06;;;;;;;0.83;0.60;;;;;;;;;;4958743;28;21103;-75
2021/03/11 14:24:33;;;;;;;0.57;0.40;;;;;;;;;;4952809;28;20471;-77
2021/03/11 14:26:59;;;;;;;0.90;0.90;;;;;;;;;;4960984;28;20956;-77
2021/03/11 14:29:25;;;;;;;0.50;0.43;;;;;;;;;;4958113;28;20993;-76
2021/03/11 14:31:51;;;;;;;1.23;0.60;;;;;;;;;;4957308;28;20996;-76
2021/03/11 14:34:18;;;;;;;0.83;0.80;;;;;;;;;;4964909;28;20439;-76
2021/03/11 14:36:44;;;;;;;0.80;0.70;;;;;;;;;;4956235;28;20447;-77
2021/03/11 14:39:10;;;;;;;0.70;0.70;;;;;;;;;;4953920;29;20502;-76
2021/03/11 14:41:36;;;;;;;0.57;0.40;;;;;;;;;;4952873;29;20420;-76
2021/03/11 14:44:04;;;;;;;0.73;0.70;;;;;;;;;;4953054;29;20941;-76
2021/03/11 14:46:30;;;;;;;0.50;0.50;;;;;;;;;;4953603;29;20420;-76
2021/03/11 14:48:56;;;;;;;0.70;0.50;;;;;;;;;;4953658;29;21074;-77
2021/03/11 14:51:22;;;;;;;1.03;0.83;;;;;;;;;;4948554;29;20856;-78
2021/03/11 14:53:48;;;;;;;0.80;0.60;;;;;;;;;;4948838;29;20971;-77
2021/03/11 14:59:18;;;;;;;0.80;0.50;;;;;;;;;;4951178;29;20508;-76
2021/03/11 15:01:44;;;;;;;0.90;0.53;;;;;;;;;;4951466;29;20432;-77
2021/03/11 15:04:10;;;;;;;1.00;0.60;;;;;;;;;;4951780;29;20494;-76
2021/03/11 15:06:36;;;;;;;1.57;0.70;;;;;;;;;;4951967;29;20419;-76
2021/03/11 15:09:03;;;;;;;0.40;0.40;;;;;;;;;;4951799;29;20613;-76
2021/03/11 15:14:33;;;;;;;0.60;0.50;;;;;;;;;;4955898;29;20442;-76
2021/03/11 15:17:00;;;;;;;0.50;0.50;;;;;;;;;;4955606;29;20416;-77
2021/03/11 15:19:26;;;;;;;1.67;0.60;;;;;;;;;;4955732;29;20411;-77
2021/03/11 15:21:53;;;;;;;0.63;0.30;;;;;;;;;;4937744;29;20438;-77
2021/03/11 15:24:19;;;;;;;0.80;0.60;;;;;;;;;;4955187;29;20427;-77
2021/03/11 15:29:48;;;;;;;1.80;0.40;;;;;;;;;;4954932;29;20502;-80
2021/03/11 15:32:14;;;;;;;1.80;0.60;;;;;;;;;;4954989;29;20467;-77
2021/03/11 15:34:41;;;;;;;1.07;0.40;;;;;;;;;;4954628;29;20588;-76
2021/03/11 15:37:07;;;;;;;0.50;0.30;;;;;;;;;;4954769;29;20430;-76
2021/03/11 15:39:35;;;;;;;1.60;0.53;;;;;;;;;;4954645;29;20415;-77
2021/03/11 15:42:01;;;;;;;1.80;0.40;;;;;;;;;;4955271;29;20425;-76